Herculaneum, MO

12:32 PM CST on December 04, 2016 (GMT -0600)
Joachim Golf Club | | Change Station

Elev 387 ft 38.26 °N, 90.39 °W | Updated 33 seconds ago

Light Rain
Light Rain Mist
40.5 °F
Feels Like 38 °F
N
3.7
Wind Variable Wind from SW

Today
High -- | Low -- °F
--% Chance of Precip.
Yesterday
High -- | Low -- °F
Precip. -- in
Pressure 29.98 in
Visibility 3.0 miles
Clouds Overcast 700 ft
Windchill 38 °F
Dew Point 39 °F
Humidity 93%
Rainfall 0.23 in
Snow Depth Not available.
7:02 AM 4:41 PM
Waxing Crescent, 24% visible
METAR KCPS 041753Z 25005KT 3SM -RA BR OVC007 04/03 A2997 RMK AO2 CIG 005V010 SLP152 P0000 60000 T00440028 10044 20033 58015
Pressure 29.98 in
Visibility 3.0 miles
Clouds Overcast 700 ft
Windchill 38 °F
Dew Point 39 °F
Humidity 93%
Rainfall 0.23 in
Snow Depth Not available.
7:02 AM 4:41 PM
Waxing Crescent, 24% visible
METAR KCPS 041753Z 25005KT 3SM -RA BR OVC007 04/03 A2997 RMK AO2 CIG 005V010 SLP152 P0000 60000 T00440028 10044 20033 58015

10-Day Weather Forecast

Almanac

Astronomy

Dec. 04, 2016 Rise Set
Actual Time
Civil Twilight
Nautical Twilight
Astronomical Twilight
Moon
Length of Visible Light
Length of Day
Tomorrow will be .
, % of the Moon is Illuminated

Today's Extremes

State Highs State Lows

Community

WunderPhotos

Upload Photos

1,955,640 photos uploaded!

WunderBlog® & News

Nearby

Air Quality

  Air Quality AQ Index Pollutant
Not available.

Snow Depth

Station Depth Elevation

Earthquake Activity

City Distance Mag. Time & Date
Minimum magnitude displayed is 2.5.

Coastal Water Temperatures

Place Temperature

Stations

Nearby Weather Stations

Station Location Temp. Windchill Dew Point Humidity Wind Precip. Elev Updated Type
                   

Watches & Warnings

There are currently no watches in effect.